sensor_id;sensor_type;location;lat;lon;timestamp;P1;durP1;ratioP1;P2;durP2;ratioP2
10201;SDS011;5143;42.584;23.164;2022-07-05T00:01:20;7.07;;;6.40;;
10201;SDS011;5143;42.584;23.164;2022-07-05T00:03:47;6.80;;;6.20;;
10201;SDS011;5143;42.584;23.164;2022-07-05T00:06:14;7.27;;;6.43;;
10201;SDS011;5143;42.584;23.164;2022-07-05T00:08:40;10.43;;;6.17;;
10201;SDS011;5143;42.584;23.164;2022-07-05T00:11:09;7.50;;;6.80;;
10201;SDS011;5143;42.584;23.164;2022-07-05T00:13:36;10.63;;;6.70;;
10201;SDS011;5143;42.584;23.164;2022-07-05T00:16:02;10.73;;;7.20;;
10201;SDS011;5143;42.584;23.164;2022-07-05T00:18:30;9.33;;;6.83;;
10201;SDS011;5143;42.584;23.164;2022-07-05T00:20:56;8.30;;;6.90;;
10201;SDS011;5143;42.584;23.164;2022-07-05T00:23:23;7.97;;;7.17;;
10201;SDS011;5143;42.584;23.164;2022-07-05T00:25:50;7.90;;;6.57;;
10201;SDS011;5143;42.584;23.164;2022-07-05T00:28:19;7.13;;;6.43;;
10201;SDS011;5143;42.584;23.164;2022-07-05T00:30:45;10.27;;;7.07;;
10201;SDS011;5143;42.584;23.164;2022-07-05T00:33:12;9.03;;;6.50;;
10201;SDS011;5143;42.584;23.164;2022-07-05T00:35:40;8.77;;;6.57;;
10201;SDS011;5143;42.584;23.164;2022-07-05T00:38:07;8.10;;;6.30;;
10201;SDS011;5143;42.584;23.164;2022-07-05T00:40:34;7.03;;;6.40;;
10201;SDS011;5143;42.584;23.164;2022-07-05T00:43:01;7.70;;;6.90;;
10201;SDS011;5143;42.584;23.164;2022-07-05T00:45:29;10.93;;;7.57;;
10201;SDS011;5143;42.584;23.164;2022-07-05T00:47:56;8.53;;;7.17;;
10201;SDS011;5143;42.584;23.164;2022-07-05T00:50:23;9.80;;;7.40;;
10201;SDS011;5143;42.584;23.164;2022-07-05T00:52:52;10.60;;;6.60;;
10201;SDS011;5143;42.584;23.164;2022-07-05T00:55:20;8.60;;;6.53;;
10201;SDS011;5143;42.584;23.164;2022-07-05T00:57:48;7.87;;;6.00;;
10201;SDS011;5143;42.584;23.164;2022-07-05T01:00:15;8.40;;;6.83;;
10201;SDS011;5143;42.584;23.164;2022-07-05T01:02:44;6.80;;;6.17;;
10201;SDS011;5143;42.584;23.164;2022-07-05T01:05:11;7.20;;;6.60;;
10201;SDS011;5143;42.584;23.164;2022-07-05T01:07:38;11.63;;;6.67;;
10201;SDS011;5143;42.584;23.164;2022-07-05T01:10:05;12.40;;;7.00;;
10201;SDS011;5143;42.584;23.164;2022-07-05T01:12:32;11.07;;;6.53;;
10201;SDS011;5143;42.584;23.164;2022-07-05T01:14:59;8.73;;;6.70;;
10201;SDS011;5143;42.584;23.164;2022-07-05T01:17:27;11.13;;;6.93;;
10201;SDS011;5143;42.584;23.164;2022-07-05T01:19:55;11.23;;;7.70;;
10201;SDS011;5143;42.584;23.164;2022-07-05T01:22:24;8.23;;;6.90;;
10201;SDS011;5143;42.584;23.164;2022-07-05T01:24:54;8.43;;;6.67;;
10201;SDS011;5143;42.584;23.164;2022-07-05T01:27:21;8.63;;;6.33;;
10201;SDS011;5143;42.584;23.164;2022-07-05T01:29:48;11.20;;;6.53;;
10201;SDS011;5143;42.584;23.164;2022-07-05T01:32:15;8.00;;;6.27;;
10201;SDS011;5143;42.584;23.164;2022-07-05T01:34:42;8.63;;;5.80;;
10201;SDS011;5143;42.584;23.164;2022-07-05T01:37:09;10.43;;;6.53;;
10201;SDS011;5143;42.584;23.164;2022-07-05T01:39:36;8.60;;;6.40;;
10201;SDS011;5143;42.584;23.164;2022-07-05T01:42:05;7.93;;;6.10;;
10201;SDS011;5143;42.584;23.164;2022-07-05T01:44:32;9.07;;;6.13;;
10201;SDS011;5143;42.584;23.164;2022-07-05T01:47:01;7.00;;;5.93;;
10201;SDS011;5143;42.584;23.164;2022-07-05T01:49:31;6.73;;;6.13;;
10201;SDS011;5143;42.584;23.164;2022-07-05T01:52:04;7.00;;;6.30;;
10201;SDS011;5143;42.584;23.164;2022-07-05T01:54:35;9.50;;;7.00;;
10201;SDS011;5143;42.584;23.164;2022-07-05T01:57:02;7.20;;;6.30;;
10201;SDS011;5143;42.584;23.164;2022-07-05T01:59:32;10.27;;;6.27;;
10201;SDS011;5143;42.584;23.164;2022-07-05T02:01:59;7.33;;;6.63;;
10201;SDS011;5143;42.584;23.164;2022-07-05T02:04:26;8.00;;;6.43;;
10201;SDS011;5143;42.584;23.164;2022-07-05T02:06:54;7.27;;;6.37;;
10201;SDS011;5143;42.584;23.164;2022-07-05T02:09:21;7.93;;;6.90;;
10201;SDS011;5143;42.584;23.164;2022-07-05T02:11:48;7.93;;;6.50;;
10201;SDS011;5143;42.584;23.164;2022-07-05T02:14:16;9.63;;;6.53;;
10201;SDS011;5143;42.584;23.164;2022-07-05T02:16:43;9.67;;;6.80;;
10201;SDS011;5143;42.584;23.164;2022-07-05T02:19:10;9.57;;;6.90;;
10201;SDS011;5143;42.584;23.164;2022-07-05T02:21:37;10.53;;;7.17;;
10201;SDS011;5143;42.584;23.164;2022-07-05T02:24:04;10.73;;;7.57;;
10201;SDS011;5143;42.584;23.164;2022-07-05T02:26:31;8.67;;;6.70;;
10201;SDS011;5143;42.584;23.164;2022-07-05T02:28:58;8.30;;;6.80;;
10201;SDS011;5143;42.584;23.164;2022-07-05T02:31:29;8.50;;;6.17;;
10201;SDS011;5143;42.584;23.164;2022-07-05T02:33:55;15.83;;;7.20;;
10201;SDS011;5143;42.584;23.164;2022-07-05T02:36:23;10.40;;;7.27;;
10201;SDS011;5143;42.584;23.164;2022-07-05T02:38:50;11.60;;;7.57;;
10201;SDS011;5143;42.584;23.164;2022-07-05T02:41:17;11.90;;;7.07;;
10201;SDS011;5143;42.584;23.164;2022-07-05T02:43:44;9.20;;;6.83;;
10201;SDS011;5143;42.584;23.164;2022-07-05T02:46:11;10.23;;;7.00;;
10201;SDS011;5143;42.584;23.164;2022-07-05T02:48:39;7.03;;;6.30;;
10201;SDS011;5143;42.584;23.164;2022-07-05T02:51:05;9.17;;;6.60;;
10201;SDS011;5143;42.584;23.164;2022-07-05T02:53:32;15.20;;;7.47;;
10201;SDS011;5143;42.584;23.164;2022-07-05T02:56:00;11.90;;;7.30;;
10201;SDS011;5143;42.584;23.164;2022-07-05T02:58:27;7.57;;;6.63;;
10201;SDS011;5143;42.584;23.164;2022-07-05T03:00:54;12.23;;;7.43;;
10201;SDS011;5143;42.584;23.164;2022-07-05T03:03:20;9.17;;;7.13;;
10201;SDS011;5143;42.584;23.164;2022-07-05T03:05:49;12.70;;;6.90;;
10201;SDS011;5143;42.584;23.164;2022-07-05T03:08:15;7.90;;;7.07;;
10201;SDS011;5143;42.584;23.164;2022-07-05T03:10:42;8.97;;;7.97;;
10201;SDS011;5143;42.584;23.164;2022-07-05T03:13:09;9.73;;;7.60;;
10201;SDS011;5143;42.584;23.164;2022-07-05T03:15:36;7.80;;;7.00;;
10201;SDS011;5143;42.584;23.164;2022-07-05T03:18:02;7.73;;;7.03;;
10201;SDS011;5143;42.584;23.164;2022-07-05T03:20:29;15.27;;;7.70;;
10201;SDS011;5143;42.584;23.164;2022-07-05T03:22:57;9.27;;;6.93;;
10201;SDS011;5143;42.584;23.164;2022-07-05T03:25:25;7.90;;;7.07;;
10201;SDS011;5143;42.584;23.164;2022-07-05T03:27:52;12.47;;;7.77;;
10201;SDS011;5143;42.584;23.164;2022-07-05T03:30:18;13.87;;;7.27;;
10201;SDS011;5143;42.584;23.164;2022-07-05T03:32:45;10.73;;;9.73;;
10201;SDS011;5143;42.584;23.164;2022-07-05T03:35:12;10.50;;;7.90;;
10201;SDS011;5143;42.584;23.164;2022-07-05T03:37:38;9.03;;;7.13;;
10201;SDS011;5143;42.584;23.164;2022-07-05T03:40:07;12.33;;;8.33;;
10201;SDS011;5143;42.584;23.164;2022-07-05T03:42:35;17.57;;;7.70;;
10201;SDS011;5143;42.584;23.164;2022-07-05T03:45:02;18.43;;;8.50;;
10201;SDS011;5143;42.584;23.164;2022-07-05T03:47:29;20.07;;;8.10;;
10201;SDS011;5143;42.584;23.164;2022-07-05T03:49:55;25.97;;;7.80;;
10201;SDS011;5143;42.584;23.164;2022-07-05T03:52:22;13.77;;;7.60;;
10201;SDS011;5143;42.584;23.164;2022-07-05T03:54:49;17.27;;;7.43;;
10201;SDS011;5143;42.584;23.164;2022-07-05T03:57:17;15.73;;;6.93;;
10201;SDS011;5143;42.584;23.164;2022-07-05T03:59:44;17.43;;;7.97;;
10201;SDS011;5143;42.584;23.164;2022-07-05T04:02:11;14.83;;;7.33;;
10201;SDS011;5143;42.584;23.164;2022-07-05T04:04:37;14.40;;;7.40;;
10201;SDS011;5143;42.584;23.164;2022-07-05T04:07:04;8.57;;;7.53;;
10201;SDS011;5143;42.584;23.164;2022-07-05T04:09:31;15.40;;;8.20;;
10201;SDS011;5143;42.584;23.164;2022-07-05T04:11:58;14.23;;;7.43;;
10201;SDS011;5143;42.584;23.164;2022-07-05T04:14:26;14.67;;;7.50;;
10201;SDS011;5143;42.584;23.164;2022-07-05T04:16:53;10.80;;;7.50;;
10201;SDS011;5143;42.584;23.164;2022-07-05T04:19:19;11.97;;;7.57;;
10201;SDS011;5143;42.584;23.164;2022-07-05T04:21:46;10.53;;;6.87;;
10201;SDS011;5143;42.584;23.164;2022-07-05T04:24:13;15.03;;;6.47;;
10201;SDS011;5143;42.584;23.164;2022-07-05T04:26:40;11.30;;;5.93;;
10201;SDS011;5143;42.584;23.164;2022-07-05T04:29:07;11.27;;;5.30;;
10201;SDS011;5143;42.584;23.164;2022-07-05T04:31:35;9.23;;;4.50;;
10201;SDS011;5143;42.584;23.164;2022-07-05T04:34:02;8.83;;;4.80;;
10201;SDS011;5143;42.584;23.164;2022-07-05T04:36:28;28.87;;;5.87;;
10201;SDS011;5143;42.584;23.164;2022-07-05T04:38:55;10.13;;;4.73;;
10201;SDS011;5143;42.584;23.164;2022-07-05T04:41:22;11.05;;;4.60;;
10201;SDS011;5143;42.584;23.164;2022-07-05T04:43:49;15.43;;;5.07;;
10201;SDS011;5143;42.584;23.164;2022-07-05T04:46:16;17.13;;;4.88;;
10201;SDS011;5143;42.584;23.164;2022-07-05T04:48:44;15.93;;;5.00;;
10201;SDS011;5143;42.584;23.164;2022-07-05T04:51:11;9.38;;;4.20;;
10201;SDS011;5143;42.584;23.164;2022-07-05T04:53:37;19.95;;;4.53;;
10201;SDS011;5143;42.584;23.164;2022-07-05T04:56:04;8.98;;;3.97;;
10201;SDS011;5143;42.584;23.164;2022-07-05T04:58:31;8.60;;;4.22;;
10201;SDS011;5143;42.584;23.164;2022-07-05T05:00:58;18.10;;;4.50;;
10201;SDS011;5143;42.584;23.164;2022-07-05T05:03:25;10.18;;;3.85;;
10201;SDS011;5143;42.584;23.164;2022-07-05T05:05:53;14.52;;;3.70;;
10201;SDS011;5143;42.584;23.164;2022-07-05T05:08:20;8.15;;;3.75;;
10201;SDS011;5143;42.584;23.164;2022-07-05T05:10:47;7.53;;;3.60;;
10201;SDS011;5143;42.584;23.164;2022-07-05T05:13:13;7.75;;;3.30;;
10201;SDS011;5143;42.584;23.164;2022-07-05T05:15:40;9.52;;;3.58;;
10201;SDS011;5143;42.584;23.164;2022-07-05T05:18:07;9.68;;;3.80;;
10201;SDS011;5143;42.584;23.164;2022-07-05T05:20:34;9.60;;;3.60;;
10201;SDS011;5143;42.584;23.164;2022-07-05T05:23:02;9.52;;;3.67;;
10201;SDS011;5143;42.584;23.164;2022-07-05T05:25:29;6.00;;;3.47;;
10201;SDS011;5143;42.584;23.164;2022-07-05T05:27:55;9.40;;;4.05;;
10201;SDS011;5143;42.584;23.164;2022-07-05T05:30:23;10.20;;;4.30;;
10201;SDS011;5143;42.584;23.164;2022-07-05T05:32:49;12.25;;;4.68;;
10201;SDS011;5143;42.584;23.164;2022-07-05T05:35:16;9.50;;;4.25;;
10201;SDS011;5143;42.584;23.164;2022-07-05T05:37:46;9.55;;;4.30;;
10201;SDS011;5143;42.584;23.164;2022-07-05T05:40:18;10.65;;;4.45;;
10201;SDS011;5143;42.584;23.164;2022-07-05T05:42:46;9.32;;;4.82;;
10201;SDS011;5143;42.584;23.164;2022-07-05T05:45:13;11.73;;;4.60;;
10201;SDS011;5143;42.584;23.164;2022-07-05T05:47:46;13.25;;;4.28;;
10201;SDS011;5143;42.584;23.164;2022-07-05T05:50:17;16.83;;;5.80;;
10201;SDS011;5143;42.584;23.164;2022-07-05T05:52:45;6.15;;;4.07;;
10201;SDS011;5143;42.584;23.164;2022-07-05T05:55:12;9.57;;;4.45;;
10201;SDS011;5143;42.584;23.164;2022-07-05T05:57:40;9.48;;;3.95;;
10201;SDS011;5143;42.584;23.164;2022-07-05T06:00:07;13.25;;;4.28;;
10201;SDS011;5143;42.584;23.164;2022-07-05T06:02:35;7.65;;;3.65;;
10201;SDS011;5143;42.584;23.164;2022-07-05T06:05:02;6.05;;;3.67;;
10201;SDS011;5143;42.584;23.164;2022-07-05T06:07:29;9.27;;;4.00;;
10201;SDS011;5143;42.584;23.164;2022-07-05T06:09:56;7.70;;;3.88;;
10201;SDS011;5143;42.584;23.164;2022-07-05T06:12:23;7.38;;;3.60;;
10201;SDS011;5143;42.584;23.164;2022-07-05T06:14:52;11.07;;;3.90;;
10201;SDS011;5143;42.584;23.164;2022-07-05T06:17:19;5.65;;;3.85;;
10201;SDS011;5143;42.584;23.164;2022-07-05T06:19:46;7.53;;;4.03;;
10201;SDS011;5143;42.584;23.164;2022-07-05T06:22:12;6.35;;;4.18;;
10201;SDS011;5143;42.584;23.164;2022-07-05T06:24:39;11.00;;;4.28;;
10201;SDS011;5143;42.584;23.164;2022-07-05T06:27:06;8.82;;;4.10;;
10201;SDS011;5143;42.584;23.164;2022-07-05T06:29:33;10.05;;;4.60;;
10201;SDS011;5143;42.584;23.164;2022-07-05T06:32:01;8.82;;;4.22;;
10201;SDS011;5143;42.584;23.164;2022-07-05T06:34:28;13.98;;;5.20;;
10201;SDS011;5143;42.584;23.164;2022-07-05T06:36:55;8.45;;;4.40;;
10201;SDS011;5143;42.584;23.164;2022-07-05T06:39:22;6.90;;;4.28;;
10201;SDS011;5143;42.584;23.164;2022-07-05T06:41:48;10.27;;;4.25;;
10201;SDS011;5143;42.584;23.164;2022-07-05T06:44:15;6.93;;;3.95;;
10201;SDS011;5143;42.584;23.164;2022-07-05T06:46:42;7.82;;;3.88;;
10201;SDS011;5143;42.584;23.164;2022-07-05T06:49:10;8.68;;;3.95;;
10201;SDS011;5143;42.584;23.164;2022-07-05T06:51:37;7.68;;;3.70;;
10201;SDS011;5143;42.584;23.164;2022-07-05T06:54:03;4.43;;;3.58;;
10201;SDS011;5143;42.584;23.164;2022-07-05T06:56:30;11.32;;;4.28;;
10201;SDS011;5143;42.584;23.164;2022-07-05T06:58:57;4.80;;;3.10;;
10201;SDS011;5143;42.584;23.164;2022-07-05T07:01:23;5.38;;;2.88;;
10201;SDS011;5143;42.584;23.164;2022-07-05T07:03:50;5.35;;;3.00;;
10201;SDS011;5143;42.584;23.164;2022-07-05T07:06:18;8.70;;;3.42;;
10201;SDS011;5143;42.584;23.164;2022-07-05T07:08:46;7.60;;;3.10;;
10201;SDS011;5143;42.584;23.164;2022-07-05T07:11:30;5.13;;;3.25;;
10201;SDS011;5143;42.584;23.164;2022-07-05T07:13:57;5.15;;;3.38;;
10201;SDS011;5143;42.584;23.164;2022-07-05T07:16:24;5.22;;;3.72;;
10201;SDS011;5143;42.584;23.164;2022-07-05T07:18:51;6.25;;;2.90;;
10201;SDS011;5143;42.584;23.164;2022-07-05T07:21:19;6.95;;;3.45;;
10201;SDS011;5143;42.584;23.164;2022-07-05T07:23:46;4.68;;;3.00;;
10201;SDS011;5143;42.584;23.164;2022-07-05T07:26:13;4.95;;;3.13;;
10201;SDS011;5143;42.584;23.164;2022-07-05T07:28:39;10.45;;;4.10;;
10201;SDS011;5143;42.584;23.164;2022-07-05T07:31:06;6.70;;;3.80;;
10201;SDS011;5143;42.584;23.164;2022-07-05T07:33:34;7.60;;;4.40;;
10201;SDS011;5143;42.584;23.164;2022-07-05T07:36:00;4.90;;;3.65;;
10201;SDS011;5143;42.584;23.164;2022-07-05T07:38:29;9.40;;;4.88;;
10201;SDS011;5143;42.584;23.164;2022-07-05T07:40:55;6.03;;;4.00;;
10201;SDS011;5143;42.584;23.164;2022-07-05T07:43:22;9.85;;;4.35;;
10201;SDS011;5143;42.584;23.164;2022-07-05T07:45:49;13.05;;;3.88;;
10201;SDS011;5143;42.584;23.164;2022-07-05T07:48:16;5.97;;;3.20;;
10201;SDS011;5143;42.584;23.164;2022-07-05T07:50:43;7.07;;;4.30;;
10201;SDS011;5143;42.584;23.164;2022-07-05T07:53:10;7.05;;;3.90;;
10201;SDS011;5143;42.584;23.164;2022-07-05T07:55:38;10.23;;;6.95;;
10201;SDS011;5143;42.584;23.164;2022-07-05T07:58:05;7.40;;;3.53;;
10201;SDS011;5143;42.584;23.164;2022-07-05T08:00:32;7.03;;;6.03;;
10201;SDS011;5143;42.584;23.164;2022-07-05T08:02:59;6.53;;;3.03;;
10201;SDS011;5143;42.584;23.164;2022-07-05T08:05:25;4.95;;;2.63;;
10201;SDS011;5143;42.584;23.164;2022-07-05T08:07:52;4.55;;;3.03;;
10201;SDS011;5143;42.584;23.164;2022-07-05T08:10:19;10.57;;;3.20;;
10201;SDS011;5143;42.584;23.164;2022-07-05T08:12:47;10.48;;;3.75;;
10201;SDS011;5143;42.584;23.164;2022-07-05T08:15:14;4.00;;;2.70;;
10201;SDS011;5143;42.584;23.164;2022-07-05T08:17:40;8.00;;;4.05;;
10201;SDS011;5143;42.584;23.164;2022-07-05T08:20:27;14.07;;;10.73;;
10201;SDS011;5143;42.584;23.164;2022-07-05T08:23:11;6.10;;;3.92;;
10201;SDS011;5143;42.584;23.164;2022-07-05T08:25:38;6.55;;;3.50;;
10201;SDS011;5143;42.584;23.164;2022-07-05T08:28:06;8.80;;;3.58;;
10201;SDS011;5143;42.584;23.164;2022-07-05T08:30:33;7.38;;;3.90;;
10201;SDS011;5143;42.584;23.164;2022-07-05T08:33:00;7.10;;;4.30;;
10201;SDS011;5143;42.584;23.164;2022-07-05T08:35:26;9.30;;;3.75;;
10201;SDS011;5143;42.584;23.164;2022-07-05T08:37:53;10.57;;;4.20;;
10201;SDS011;5143;42.584;23.164;2022-07-05T08:40:20;17.13;;;5.10;;
10201;SDS011;5143;42.584;23.164;2022-07-05T08:42:52;7.53;;;5.10;;
10201;SDS011;5143;42.584;23.164;2022-07-05T08:45:23;11.90;;;4.20;;
10201;SDS011;5143;42.584;23.164;2022-07-05T08:47:52;9.13;;;4.65;;
10201;SDS011;5143;42.584;23.164;2022-07-05T08:50:22;16.25;;;5.07;;
10201;SDS011;5143;42.584;23.164;2022-07-05T08:52:50;15.55;;;5.38;;
10201;SDS011;5143;42.584;23.164;2022-07-05T08:55:18;8.15;;;4.55;;
10201;SDS011;5143;42.584;23.164;2022-07-05T08:57:46;12.32;;;7.05;;
10201;SDS011;5143;42.584;23.164;2022-07-05T09:00:13;5.75;;;3.88;;
10201;SDS011;5143;42.584;23.164;2022-07-05T09:02:42;8.88;;;3.72;;
10201;SDS011;5143;42.584;23.164;2022-07-05T09:05:09;7.28;;;4.38;;
10201;SDS011;5143;42.584;23.164;2022-07-05T09:07:40;12.50;;;4.97;;
10201;SDS011;5143;42.584;23.164;2022-07-05T09:10:15;9.23;;;4.65;;
10201;SDS011;5143;42.584;23.164;2022-07-05T09:12:45;8.75;;;4.43;;
10201;SDS011;5143;42.584;23.164;2022-07-05T09:15:12;6.22;;;3.83;;
10201;SDS011;5143;42.584;23.164;2022-07-05T09:17:43;9.18;;;4.25;;
10201;SDS011;5143;42.584;23.164;2022-07-05T09:20:10;10.23;;;4.03;;
10201;SDS011;5143;42.584;23.164;2022-07-05T09:22:42;11.45;;;4.10;;
10201;SDS011;5143;42.584;23.164;2022-07-05T09:25:17;7.63;;;4.25;;
10201;SDS011;5143;42.584;23.164;2022-07-05T09:27:50;8.57;;;3.97;;
10201;SDS011;5143;42.584;23.164;2022-07-05T09:30:27;9.60;;;4.13;;
10201;SDS011;5143;42.584;23.164;2022-07-05T09:33:01;8.75;;;3.90;;
10201;SDS011;5143;42.584;23.164;2022-07-05T09:35:29;10.90;;;4.45;;
10201;SDS011;5143;42.584;23.164;2022-07-05T09:37:56;10.52;;;4.32;;
10201;SDS011;5143;42.584;23.164;2022-07-05T09:40:23;10.38;;;3.83;;
10201;SDS011;5143;42.584;23.164;2022-07-05T09:42:49;8.82;;;4.22;;
10201;SDS011;5143;42.584;23.164;2022-07-05T09:45:21;8.75;;;3.70;;
10201;SDS011;5143;42.584;23.164;2022-07-05T09:47:49;7.85;;;4.57;;
10201;SDS011;5143;42.584;23.164;2022-07-05T09:53:03;9.25;;;4.03;;
10201;SDS011;5143;42.584;23.164;2022-07-05T09:55:30;13.00;;;4.70;;
10201;SDS011;5143;42.584;23.164;2022-07-05T09:57:58;6.35;;;4.25;;
10201;SDS011;5143;42.584;23.164;2022-07-05T10:00:25;6.22;;;4.35;;
10201;SDS011;5143;42.584;23.164;2022-07-05T10:02:52;8.25;;;3.95;;
10201;SDS011;5143;42.584;23.164;2022-07-05T10:05:26;6.18;;;4.05;;
10201;SDS011;5143;42.584;23.164;2022-07-05T10:07:55;6.45;;;4.05;;
10201;SDS011;5143;42.584;23.164;2022-07-05T10:10:24;8.10;;;3.85;;
10201;SDS011;5143;42.584;23.164;2022-07-05T10:12:52;11.15;;;4.00;;
10201;SDS011;5143;42.584;23.164;2022-07-05T10:15:23;12.20;;;3.90;;
10201;SDS011;5143;42.584;23.164;2022-07-05T10:17:52;7.65;;;3.58;;
10201;SDS011;5143;42.584;23.164;2022-07-05T10:20:23;7.63;;;3.90;;
10201;SDS011;5143;42.584;23.164;2022-07-05T10:22:56;7.45;;;3.58;;
10201;SDS011;5143;42.584;23.164;2022-07-05T10:25:24;12.65;;;3.90;;
10201;SDS011;5143;42.584;23.164;2022-07-05T10:27:54;5.05;;;3.65;;
10201;SDS011;5143;42.584;23.164;2022-07-05T10:30:22;6.72;;;3.83;;
10201;SDS011;5143;42.584;23.164;2022-07-05T10:32:49;6.22;;;3.47;;
10201;SDS011;5143;42.584;23.164;2022-07-05T10:35:17;7.43;;;3.65;;
10201;SDS011;5143;42.584;23.164;2022-07-05T10:37:44;6.60;;;3.50;;
10201;SDS011;5143;42.584;23.164;2022-07-05T10:40:14;8.63;;;3.90;;
10201;SDS011;5143;42.584;23.164;2022-07-05T10:42:43;8.95;;;3.40;;
10201;SDS011;5143;42.584;23.164;2022-07-05T10:45:29;8.75;;;3.60;;
10201;SDS011;5143;42.584;23.164;2022-07-05T10:48:13;9.18;;;3.83;;
10201;SDS011;5143;42.584;23.164;2022-07-05T10:50:48;8.60;;;3.90;;
10201;SDS011;5143;42.584;23.164;2022-07-05T10:53:17;6.93;;;3.88;;
10201;SDS011;5143;42.584;23.164;2022-07-05T10:55:54;7.80;;;5.05;;
10201;SDS011;5143;42.584;23.164;2022-07-05T10:58:25;8.43;;;4.40;;
10201;SDS011;5143;42.584;23.164;2022-07-05T11:04:07;8.65;;;4.10;;
10201;SDS011;5143;42.584;23.164;2022-07-05T11:06:48;8.40;;;3.80;;
10201;SDS011;5143;42.584;23.164;2022-07-05T11:09:19;5.97;;;3.88;;
10201;SDS011;5143;42.584;23.164;2022-07-05T11:12:00;4.63;;;3.72;;
10201;SDS011;5143;42.584;23.164;2022-07-05T11:14:30;9.70;;;4.40;;
10201;SDS011;5143;42.584;23.164;2022-07-05T11:19:58;8.50;;;4.20;;
10201;SDS011;5143;42.584;23.164;2022-07-05T11:22:26;8.60;;;4.25;;
10201;SDS011;5143;42.584;23.164;2022-07-05T11:24:53;9.52;;;4.20;;
10201;SDS011;5143;42.584;23.164;2022-07-05T11:27:23;11.05;;;4.25;;
10201;SDS011;5143;42.584;23.164;2022-07-05T11:29:50;6.65;;;3.72;;
10201;SDS011;5143;42.584;23.164;2022-07-05T11:32:19;15.35;;;4.03;;
10201;SDS011;5143;42.584;23.164;2022-07-05T11:34:48;5.85;;;3.40;;
10201;SDS011;5143;42.584;23.164;2022-07-05T11:37:17;6.32;;;3.90;;
10201;SDS011;5143;42.584;23.164;2022-07-05T11:39:47;6.72;;;3.50;;
10201;SDS011;5143;42.584;23.164;2022-07-05T11:42:53;11.93;;;4.15;;
10201;SDS011;5143;42.584;23.164;2022-07-05T11:45:20;7.78;;;4.10;;
10201;SDS011;5143;42.584;23.164;2022-07-05T11:47:47;6.13;;;4.10;;
10201;SDS011;5143;42.584;23.164;2022-07-05T11:50:14;8.52;;;3.30;;
10201;SDS011;5143;42.584;23.164;2022-07-05T11:52:41;8.27;;;3.70;;
10201;SDS011;5143;42.584;23.164;2022-07-05T11:55:09;6.68;;;4.07;;
10201;SDS011;5143;42.584;23.164;2022-07-05T11:57:36;6.75;;;4.10;;
10201;SDS011;5143;42.584;23.164;2022-07-05T12:00:26;4.32;;;3.47;;
10201;SDS011;5143;42.584;23.164;2022-07-05T12:02:54;10.50;;;4.22;;
10201;SDS011;5143;42.584;23.164;2022-07-05T12:05:21;11.02;;;4.55;;
10201;SDS011;5143;42.584;23.164;2022-07-05T12:07:48;10.10;;;4.35;;
10201;SDS011;5143;42.584;23.164;2022-07-05T12:10:16;6.63;;;3.83;;
10201;SDS011;5143;42.584;23.164;2022-07-05T12:13:05;7.10;;;4.05;;
10201;SDS011;5143;42.584;23.164;2022-07-05T12:15:33;12.60;;;3.97;;
10201;SDS011;5143;42.584;23.164;2022-07-05T12:18:01;6.78;;;4.00;;
10201;SDS011;5143;42.584;23.164;2022-07-05T12:20:31;5.97;;;4.00;;
10201;SDS011;5143;42.584;23.164;2022-07-05T12:22:58;5.95;;;3.90;;
10201;SDS011;5143;42.584;23.164;2022-07-05T12:25:26;7.10;;;3.70;;
10201;SDS011;5143;42.584;23.164;2022-07-05T12:27:54;9.55;;;3.97;;
10201;SDS011;5143;42.584;23.164;2022-07-05T12:30:22;9.27;;;3.90;;
10201;SDS011;5143;42.584;23.164;2022-07-05T12:32:54;6.95;;;3.95;;
10201;SDS011;5143;42.584;23.164;2022-07-05T12:35:32;16.92;;;5.65;;
10201;SDS011;5143;42.584;23.164;2022-07-05T12:38:06;7.07;;;3.92;;
10201;SDS011;5143;42.584;23.164;2022-07-05T12:40:35;16.30;;;4.55;;
10201;SDS011;5143;42.584;23.164;2022-07-05T12:43:05;11.35;;;3.80;;
10201;SDS011;5143;42.584;23.164;2022-07-05T12:45:33;5.03;;;3.85;;
10201;SDS011;5143;42.584;23.164;2022-07-05T12:48:03;8.32;;;3.60;;
10201;SDS011;5143;42.584;23.164;2022-07-05T12:50:43;6.50;;;4.13;;
10201;SDS011;5143;42.584;23.164;2022-07-05T12:53:11;6.63;;;3.85;;
10201;SDS011;5143;42.584;23.164;2022-07-05T12:55:59;9.23;;;3.85;;
10201;SDS011;5143;42.584;23.164;2022-07-05T12:58:48;8.02;;;4.13;;
10201;SDS011;5143;42.584;23.164;2022-07-05T13:01:19;13.05;;;3.95;;
10201;SDS011;5143;42.584;23.164;2022-07-05T13:04:02;8.45;;;4.15;;
10201;SDS011;5143;42.584;23.164;2022-07-05T13:06:40;6.68;;;3.72;;
10201;SDS011;5143;42.584;23.164;2022-07-05T13:09:08;11.25;;;3.80;;
10201;SDS011;5143;42.584;23.164;2022-07-05T13:11:35;5.53;;;4.05;;
10201;SDS011;5143;42.584;23.164;2022-07-05T13:14:02;5.80;;;3.50;;
10201;SDS011;5143;42.584;23.164;2022-07-05T13:16:29;12.90;;;4.10;;
10201;SDS011;5143;42.584;23.164;2022-07-05T13:19:06;8.02;;;4.05;;
10201;SDS011;5143;42.584;23.164;2022-07-05T13:21:34;9.43;;;4.10;;
10201;SDS011;5143;42.584;23.164;2022-07-05T13:24:01;6.95;;;3.30;;
10201;SDS011;5143;42.584;23.164;2022-07-05T13:26:28;4.28;;;3.83;;
10201;SDS011;5143;42.584;23.164;2022-07-05T13:28:54;7.63;;;3.70;;
10201;SDS011;5143;42.584;23.164;2022-07-05T13:31:21;7.30;;;3.40;;
10201;SDS011;5143;42.584;23.164;2022-07-05T13:33:48;7.00;;;4.00;;
10201;SDS011;5143;42.584;23.164;2022-07-05T13:36:16;10.20;;;3.85;;
10201;SDS011;5143;42.584;23.164;2022-07-05T13:38:43;7.55;;;4.03;;
10201;SDS011;5143;42.584;23.164;2022-07-05T13:41:10;8.30;;;3.70;;
10201;SDS011;5143;42.584;23.164;2022-07-05T13:43:36;4.82;;;4.03;;
10201;SDS011;5143;42.584;23.164;2022-07-05T13:46:04;10.52;;;4.28;;
10201;SDS011;5143;42.584;23.164;2022-07-05T13:48:31;7.10;;;3.83;;
10201;SDS011;5143;42.584;23.164;2022-07-05T13:50:58;7.40;;;3.47;;
10201;SDS011;5143;42.584;23.164;2022-07-05T13:53:26;9.48;;;3.75;;
10201;SDS011;5143;42.584;23.164;2022-07-05T13:55:53;8.90;;;3.70;;
10201;SDS011;5143;42.584;23.164;2022-07-05T13:58:19;4.68;;;3.58;;
10201;SDS011;5143;42.584;23.164;2022-07-05T14:00:46;4.85;;;3.58;;
10201;SDS011;5143;42.584;23.164;2022-07-05T14:03:13;7.57;;;3.53;;
10201;SDS011;5143;42.584;23.164;2022-07-05T14:05:41;5.45;;;3.60;;
10201;SDS011;5143;42.584;23.164;2022-07-05T14:08:09;5.72;;;3.53;;
10201;SDS011;5143;42.584;23.164;2022-07-05T14:10:37;5.65;;;3.45;;
10201;SDS011;5143;42.584;23.164;2022-07-05T14:13:04;7.00;;;3.40;;
10201;SDS011;5143;42.584;23.164;2022-07-05T14:15:31;4.88;;;3.25;;
10201;SDS011;5143;42.584;23.164;2022-07-05T14:17:58;5.93;;;3.60;;
10201;SDS011;5143;42.584;23.164;2022-07-05T14:20:27;5.95;;;3.60;;
10201;SDS011;5143;42.584;23.164;2022-07-05T14:22:54;9.13;;;4.05;;
10201;SDS011;5143;42.584;23.164;2022-07-05T14:25:21;7.10;;;3.40;;
10201;SDS011;5143;42.584;23.164;2022-07-05T14:27:49;4.43;;;3.47;;
10201;SDS011;5143;42.584;23.164;2022-07-05T14:30:15;6.18;;;3.83;;
10201;SDS011;5143;42.584;23.164;2022-07-05T14:32:42;7.65;;;3.55;;
10201;SDS011;5143;42.584;23.164;2022-07-05T14:35:09;14.50;;;4.13;;
10201;SDS011;5143;42.584;23.164;2022-07-05T14:37:36;6.35;;;3.42;;
10201;SDS011;5143;42.584;23.164;2022-07-05T14:40:03;5.25;;;3.28;;
10201;SDS011;5143;42.584;23.164;2022-07-05T14:42:31;5.30;;;3.95;;
10201;SDS011;5143;42.584;23.164;2022-07-05T14:45:00;6.63;;;3.90;;
10201;SDS011;5143;42.584;23.164;2022-07-05T14:47:26;6.22;;;2.83;;
10201;SDS011;5143;42.584;23.164;2022-07-05T14:49:53;7.55;;;3.70;;
10201;SDS011;5143;42.584;23.164;2022-07-05T14:52:20;5.35;;;3.20;;
10201;SDS011;5143;42.584;23.164;2022-07-05T14:54:47;6.72;;;3.45;;
10201;SDS011;5143;42.584;23.164;2022-07-05T14:57:14;6.68;;;3.83;;
10201;SDS011;5143;42.584;23.164;2022-07-05T14:59:41;5.18;;;3.55;;